Time;durP1;ratioP1;P1;durP2;ratioP2;P2;SDS_P1;SDS_P2;PMS_P1;PMS_P2;Temp;Humidity;BMP_temperature;BMP_pressure;BME280_temperature;BME280_humidity;BME280_pressure;Samples;Min_cycle;Max_cycle;Signal;HPM_P1;HPM_P2
2021/06/17 00:00:19;;;;;;;3.17;1.95;;;;;;;14.92;100.00;100629.49;1770341;79;20987;-45
2021/06/17 00:02:46;;;;;;;2.35;1.60;;;;;;;14.89;100.00;100625.98;1770257;80;21453;-46
2021/06/17 00:05:15;;;;;;;3.12;1.82;;;;;;;14.88;100.00;100631.20;1770714;79;21469;-45
2021/06/17 00:07:41;;;;;;;4.37;2.02;;;;;;;14.86;100.00;100633.47;1766593;81;20973;-46
2021/06/17 00:10:31;;;;;;;3.87;2.60;;;;;;;14.84;100.00;100636.52;1754752;81;21088;-45
2021/06/17 00:13:01;;;;;;;4.47;2.25;;;;;;;14.82;100.00;100637.94;1754524;81;21025;-45
2021/06/17 00:15:27;;;;;;;3.08;1.70;;;;;;;14.79;100.00;100644.05;1733294;81;20913;-45
2021/06/17 00:17:54;;;;;;;5.33;2.58;;;;;;;14.77;100.00;100655.34;1765428;80;21441;-45
2021/06/17 00:20:22;;;;;;;1.90;1.65;;;;;;;14.75;100.00;100654.02;1770764;79;20984;-45
2021/06/17 00:22:48;;;;;;;3.52;1.57;;;;;;;14.73;100.00;100657.63;1764418;81;21019;-46
2021/06/17 00:25:15;;;;;;;3.42;1.75;;;;;;;14.70;100.00;100665.92;1767116;80;20988;-46
2021/06/17 00:27:42;;;;;;;2.33;1.50;;;;;;;14.68;100.00;100664.59;1735143;81;20922;-46
2021/06/17 00:30:11;;;;;;;2.00;1.60;;;;;;;14.65;100.00;100674.83;1746434;80;21811;-45
2021/06/17 00:32:37;;;;;;;2.45;1.70;;;;;;;14.63;100.00;100683.38;1717499;83;21320;-46
2021/06/17 00:35:05;;;;;;;4.28;2.33;;;;;;;14.61;100.00;100685.06;1750547;80;21032;-46
2021/06/17 00:37:32;;;;;;;3.40;2.20;;;;;;;14.61;100.00;100689.19;1747431;81;20995;-47
2021/06/17 00:39:59;;;;;;;3.75;2.17;;;;;;;14.61;100.00;100682.31;1747644;82;21534;-45
2021/06/17 00:42:26;;;;;;;2.42;1.67;;;;;;;14.62;100.00;100672.13;1747924;81;21037;-45
2021/06/17 00:44:54;;;;;;;3.70;2.47;;;;;;;14.63;100.00;100658.05;1712684;82;21023;-47
2021/06/17 00:47:20;;;;;;;3.50;1.92;;;;;;;14.68;100.00;100643.97;1718357;83;20986;-47
2021/06/17 00:49:46;;;;;;;3.17;2.20;;;;;;;14.68;100.00;100628.84;1718691;82;21034;-48
2021/06/17 00:52:12;;;;;;;2.72;2.00;;;;;;;14.69;100.00;100624.95;1718268;83;21693;-47
2021/06/17 00:54:39;;;;;;;2.98;1.75;;;;;;;14.65;100.00;100624.76;1718353;82;21653;-46
2021/06/17 00:57:07;;;;;;;4.05;2.35;;;;;;;14.63;100.00;100628.37;1772777;79;21028;-45
2021/06/17 00:59:34;;;;;;;3.12;2.10;;;;;;;14.60;100.00;100628.98;1763342;81;21037;-45
2021/06/17 01:02:00;;;;;;;5.08;2.72;;;;;;;14.58;100.00;100632.59;1762387;80;20986;-47
2021/06/17 01:04:28;;;;;;;4.10;2.10;;;;;;;14.53;100.00;100622.48;1762871;80;21419;-47
2021/06/17 01:06:55;;;;;;;4.30;1.92;;;;;;;14.50;100.00;100623.63;1763378;81;20999;-46
2021/06/17 01:09:48;;;;;;;2.37;1.42;;;;;;;14.46;100.00;100623.40;1763197;81;20998;-46
2021/06/17 01:12:52;;;;;;;;;;;;;;;14.44;100.00;100626.19;1760677;81;21008;-47
2021/06/17 01:15:20;;;;;;;2.95;1.65;;;;;;;14.41;100.00;100622.95;1763587;80;20137;-46
2021/06/17 01:18:04;;;;;;;4.67;2.10;;;;;;;14.39;100.00;100627.94;1718190;83;21005;-46
2021/06/17 01:20:39;;;;;;;2.83;1.80;;;;;;;14.38;100.00;100629.03;1717427;82;21031;-46
2021/06/17 01:23:27;;;;;;;3.52;2.08;;;;;;;14.36;100.00;100634.01;1763415;81;21042;-46
2021/06/17 01:26:18;;;;;;;4.25;1.82;;;;;;;14.34;100.00;100635.42;1763459;79;21437;-45
2021/06/17 01:28:45;;;;;;;4.25;1.95;;;;;;;14.36;100.00;100634.57;1751774;80;21311;-46
2021/06/17 01:31:15;;;;;;;2.65;1.65;;;;;;;14.38;100.00;100633.72;1699609;83;21573;-46
2021/06/17 01:33:43;;;;;;;2.87;2.02;;;;;;;14.40;100.00;100636.98;1736601;82;21030;-48
2021/06/17 01:36:17;;;;;;;4.70;2.25;;;;;;;14.40;100.00;100639.73;1725743;81;21043;-46
2021/06/17 01:38:46;;;;;;;3.37;2.17;;;;;;;14.36;100.00;100635.95;1726953;81;21008;-45
2021/06/17 01:41:12;;;;;;;2.17;1.62;;;;;;;14.34;100.00;100634.05;1722929;83;21025;-46
2021/06/17 01:43:41;;;;;;;3.77;2.67;;;;;;;14.34;100.00;100632.67;1724373;83;21122;-46
2021/06/17 01:46:07;;;;;;;4.30;1.92;;;;;;;14.37;100.00;100630.72;1783961;80;20974;-46
2021/06/17 01:48:34;;;;;;;3.67;2.05;;;;;;;14.39;100.00;100631.22;1760226;80;21441;-46
2021/06/17 01:51:01;;;;;;;2.05;1.82;;;;;;;14.42;100.00;100637.52;1770430;79;21477;-47
2021/06/17 01:53:28;;;;;;;4.12;1.98;;;;;;;14.45;100.00;100636.09;1770528;81;20991;-47
2021/06/17 01:55:58;;;;;;;2.47;1.27;;;;;;;14.49;100.00;100625.57;1743144;80;21047;-46
2021/06/17 01:58:25;;;;;;;2.65;1.75;;;;;;;14.55;100.00;100630.45;1759668;81;21004;-46
2021/06/17 02:00:51;;;;;;;2.08;1.40;;;;;;;14.61;100.00;100634.72;1754484;81;20985;-47
2021/06/17 02:03:18;;;;;;;1.87;1.15;;;;;;;14.68;100.00;100637.09;1694244;83;21013;-46
2021/06/17 02:05:44;;;;;;;2.27;1.70;;;;;;;14.77;100.00;100640.78;1725775;81;20989;-49
2021/06/17 02:08:10;;;;;;;2.55;1.62;;;;;;;14.81;100.00;100643.17;1689534;83;21498;-47
2021/06/17 02:10:38;;;;;;;4.05;2.00;;;;;;;14.83;100.00;100652.75;1696756;83;21009;-46
2021/06/17 02:13:05;;;;;;;3.25;2.22;;;;;;;14.86;100.00;100646.39;1740116;82;20983;-46
2021/06/17 02:15:32;;;;;;;1.82;1.62;;;;;;;14.89;100.00;100645.80;1719515;80;21023;-48
2021/06/17 02:17:59;;;;;;;1.75;1.60;;;;;;;14.89;100.00;100643.86;1770582;80;20999;-47
2021/06/17 02:20:26;;;;;;;2.95;2.10;;;;;;;14.93;100.00;100644.06;1709428;80;21023;-48
2021/06/17 02:22:54;;;;;;;1.90;1.50;;;;;;;14.94;100.00;100638.27;1770560;80;21010;-47
2021/06/17 02:25:21;;;;;;;4.28;2.50;;;;;;;14.98;100.00;100652.22;1761393;80;21491;-48
2021/06/17 02:27:50;;;;;;;3.17;2.08;;;;;;;15.04;100.00;100656.52;1726224;82;20998;-47
2021/06/17 02:30:17;;;;;;;4.85;2.27;;;;;;;15.12;100.00;100663.25;1726522;82;21021;-47
2021/06/17 02:32:49;;;;;;;3.00;2.00;;;;;;;15.26;100.00;100664.89;1749215;81;20992;-46
2021/06/17 02:35:20;;;;;;;2.75;1.45;;;;;;;15.39;100.00;100676.21;1774904;80;21021;-47
2021/06/17 02:37:49;;;;;;;4.33;1.87;;;;;;;15.47;100.00;100671.35;1781269;80;20990;-49
2021/06/17 02:40:16;;;;;;;2.72;1.95;;;;;;;15.57;100.00;100678.59;1779178;80;21025;-47
2021/06/17 02:42:43;;;;;;;4.17;2.33;;;;;;;15.71;100.00;100679.42;1737579;80;21062;-47
2021/06/17 02:45:13;;;;;;;2.37;1.47;;;;;;;15.90;100.00;100675.98;1752417;81;20899;-47
2021/06/17 02:47:40;;;;;;;4.70;1.70;;;;;;;16.08;100.00;100671.44;1719128;83;20898;-50
2021/06/17 02:50:08;;;;;;;4.83;1.82;;;;;;;16.24;100.00;100677.39;1720400;82;21365;-47
2021/06/17 02:52:36;;;;;;;2.12;1.22;;;;;;;16.38;100.00;100680.67;1772690;80;21002;-47
2021/06/17 02:55:04;;;;;;;2.30;1.98;;;;;;;16.49;100.00;100676.53;1699342;82;21013;-47
2021/06/17 02:57:51;;;;;;;3.12;2.27;;;;;;;16.59;100.00;100678.22;1730954;82;21066;-47
2021/06/17 03:00:18;;;;;;;1.95;1.55;;;;;;;16.69;100.00;100682.94;1674318;83;20998;-49
2021/06/17 03:03:13;;;;;;;3.47;1.77;;;;;;;16.80;100.00;100677.98;1743411;80;21013;-47
2021/06/17 03:05:56;;;;;;;2.15;1.45;;;;;;;16.89;100.00;100683.55;1722707;82;20999;-46
2021/06/17 03:08:31;;;;;;;3.02;1.47;;;;;;;17.00;100.00;100688.25;1746657;80;20979;-46
2021/06/17 03:11:01;;;;;;;3.52;1.82;;;;;;;17.09;100.00;100689.11;1748943;81;21002;-47
2021/06/17 03:13:31;;;;;;;2.98;1.62;;;;;;;17.19;100.00;100688.83;1749237;81;21779;-46
2021/06/17 03:15:58;;;;;;;1.00;0.88;;;;;;;17.29;100.00;100682.22;1726170;82;21044;-48
2021/06/17 03:18:24;;;;;;;2.05;1.72;;;;;;;17.41;100.00;100684.62;1749225;82;21008;-46
2021/06/17 03:20:51;;;;;;;2.40;1.55;;;;;;;17.52;100.00;100676.84;1725666;82;21000;-46
2021/06/17 03:23:19;;;;;;;3.17;2.02;;;;;;;17.63;100.00;100672.66;1725978;82;21004;-48
2021/06/17 03:25:54;;;;;;;3.42;2.00;;;;;;;17.75;100.00;100676.16;1726558;81;21009;-45
2021/06/17 03:28:22;;;;;;;2.75;1.85;;;;;;;17.85;100.00;100677.83;1721706;83;21036;-47
2021/06/17 03:30:50;;;;;;;2.05;1.17;;;;;;;17.94;100.00;100671.75;1730154;82;21009;-46
2021/06/17 03:33:22;;;;;;;2.65;1.80;;;;;;;18.00;100.00;100678.77;1730016;82;21014;-46
2021/06/17 03:35:48;;;;;;;2.72;1.42;;;;;;;18.07;100.00;100670.55;1719780;82;21021;-45
2021/06/17 03:38:15;;;;;;;2.25;1.22;;;;;;;18.12;100.00;100670.38;1744588;80;21051;-45
2021/06/17 03:40:43;;;;;;;1.42;1.10;;;;;;;18.15;100.00;100662.81;1716856;82;21038;-46
2021/06/17 03:43:10;;;;;;;1.72;1.50;;;;;;;18.21;100.00;100665.67;1743649;82;21034;-45
2021/06/17 03:45:40;;;;;;;2.00;1.50;;;;;;;18.25;100.00;100672.19;1743376;81;21015;-46
2021/06/17 03:48:07;;;;;;;1.57;0.95;;;;;;;18.28;100.00;100672.91;1750336;80;21007;-45
2021/06/17 03:50:33;;;;;;;2.25;1.65;;;;;;;18.34;100.00;100673.55;1740600;80;20991;-45
2021/06/17 03:52:59;;;;;;;1.32;1.05;;;;;;;18.39;100.00;100674.20;1707731;82;21466;-46
2021/06/17 03:55:27;;;;;;;2.65;1.90;;;;;;;18.46;100.00;100682.01;1730451;81;21006;-45
2021/06/17 03:57:56;;;;;;;1.80;1.27;;;;;;;18.48;100.00;100679.16;1760704;81;21384;-45
2021/06/17 04:00:23;;;;;;;1.75;1.60;;;;;;;18.55;100.00;100682.02;1759457;80;21018;-45
2021/06/17 04:02:54;;;;;;;1.67;1.12;;;;;;;18.62;100.00;100682.30;1744169;82;21057;-44
2021/06/17 04:05:20;;;;;;;1.20;1.10;;;;;;;18.70;100.00;100682.30;1744967;81;21046;-45
2021/06/17 04:07:48;;;;;;;2.47;1.20;;;;;;;18.77;100.00;100688.77;1743437;82;21002;-47
2021/06/17 04:10:16;;;;;;;1.50;1.40;;;;;;;18.83;100.00;100690.78;1743114;80;21504;-45
2021/06/17 04:12:42;;;;;;;1.37;1.22;;;;;;;18.87;100.00;100680.68;1746284;82;21474;-47
2021/06/17 04:15:11;;;;;;;1.45;1.12;;;;;;;18.94;100.00;100690.68;1721779;82;21001;-45
2021/06/17 04:17:45;;;;;;;2.47;1.60;;;;;;;19.04;100.00;100693.09;1740616;80;20994;-45
2021/06/17 04:20:14;;;;;;;2.40;1.70;;;;;;;19.12;100.00;100695.59;1732154;80;21026;-45
2021/06/17 04:22:45;;;;;;;1.10;1.00;;;;;;;19.20;100.00;100693.34;1773015;80;21021;-48
2021/06/17 04:25:12;;;;;;;2.67;1.62;;;;;;;19.29;100.00;100701.64;1751796;80;21010;-45
2021/06/17 04:27:40;;;;;;;1.50;1.20;;;;;;;19.33;100.00;100704.77;1746052;82;21407;-45
2021/06/17 04:30:10;;;;;;;1.35;1.15;;;;;;;19.40;100.00;100696.53;1715160;83;21049;-45
2021/06/17 04:32:40;;;;;;;1.70;1.42;;;;;;;19.43;100.00;100705.55;1727654;83;21058;-46
2021/06/17 04:35:07;;;;;;;2.42;1.57;;;;;;;19.47;100.00;100695.44;1746297;80;21010;-45
2021/06/17 04:37:34;;;;;;;1.67;1.10;;;;;;;19.52;100.00;100692.48;1756863;80;21013;-45
2021/06/17 04:40:00;;;;;;;2.87;1.60;;;;;;;19.70;100.00;100702.34;1765962;81;20995;-46
2021/06/17 04:42:28;;;;;;;7.25;1.30;;;;;;;19.70;100.00;100702.34;1751153;80;21378;-46
2021/06/17 04:44:54;;;;;;;2.72;1.62;;;;;;;19.87;100.00;100720.84;1737283;80;21089;-45
2021/06/17 04:47:21;;;;;;;2.92;1.50;;;;;;;19.87;100.00;100720.84;1738381;82;21018;-45
2021/06/17 04:49:47;;;;;;;1.80;1.47;;;;;;;20.01;100.00;100709.52;1733624;81;21000;-46
2021/06/17 04:52:19;;;;;;;2.55;1.45;;;;;;;20.01;100.00;100709.52;1732021;82;21429;-45
2021/06/17 04:54:46;;;;;;;1.47;1.37;;;;;;;20.08;100.00;100702.86;1731442;81;20968;-45
2021/06/17 04:57:13;;;;;;;1.50;1.40;;;;;;;20.16;100.00;100703.36;1681018;83;21115;-46
2021/06/17 04:59:39;;;;;;;1.60;1.10;;;;;;;20.24;100.00;100705.02;1745381;80;21599;-45
2021/06/17 05:02:05;;;;;;;3.98;1.40;;;;;;;20.31;100.00;100701.93;1743788;80;21052;-44
2021/06/17 05:04:34;;;;;;;1.32;1.22;;;;;;;20.39;100.00;100705.78;1748391;80;20986;-45
2021/06/17 05:12:16;;;;;;;1.40;1.22;;;;;;;20.66;98.14;100704.42;1732470;80;21839;-45
2021/06/17 05:14:43;;;;;;;1.30;0.82;;;;;;;20.72;97.47;100709.18;1732390;80;21007;-45
2021/06/17 05:17:09;;;;;;;2.45;1.37;;;;;;;20.72;97.21;100704.46;1749419;80;21006;-46
2021/06/17 05:19:36;;;;;;;1.47;1.27;;;;;;;20.79;97.16;100698.33;1737893;80;21543;-44
2021/06/17 05:22:03;;;;;;;3.02;1.30;;;;;;;20.86;96.26;100700.56;1732776;81;21025;-45
2021/06/17 05:24:30;;;;;;;1.55;1.30;;;;;;;20.89;95.21;100700.67;1746254;80;21006;-45
2021/06/17 05:26:56;;;;;;;1.85;1.22;;;;;;;20.96;95.82;100698.73;1745500;82;21002;-44
2021/06/17 05:29:22;;;;;;;2.15;1.55;;;;;;;21.03;95.83;100702.56;1724622;82;21046;-45
2021/06/17 05:31:49;;;;;;;1.80;1.52;;;;;;;21.13;94.95;100701.89;1754410;80;21050;-46
2021/06/17 05:34:15;;;;;;;1.35;1.20;;;;;;;21.28;94.79;100705.38;1741100;82;21392;-44
2021/06/17 05:36:42;;;;;;;1.82;1.30;;;;;;;21.41;94.41;100712.63;1756088;80;21000;-44
2021/06/17 05:39:08;;;;;;;1.10;1.00;;;;;;;21.52;92.09;100710.77;1749726;82;20998;-46
2021/06/17 05:41:34;;;;;;;1.95;1.20;;;;;;;21.63;90.72;100719.67;1706717;82;21018;-44
2021/06/17 05:44:01;;;;;;;1.65;1.00;;;;;;;21.76;91.79;100712.16;1684799;85;21029;-44
2021/06/17 05:46:27;;;;;;;3.72;1.20;;;;;;;21.90;90.67;100717.34;1684530;85;21524;-46
2021/06/17 05:48:53;;;;;;;2.00;1.20;;;;;;;22.02;91.69;100717.33;1684864;85;21031;-45
2021/06/17 05:51:20;;;;;;;1.62;1.10;;;;;;;22.13;88.98;100720.42;1684887;85;20989;-46
2021/06/17 05:53:46;;;;;;;1.57;1.10;;;;;;;22.16;88.05;100723.92;1692719;83;21029;-45
2021/06/17 05:56:14;;;;;;;1.60;1.10;;;;;;;22.23;88.28;100713.59;1713316;83;38374;-45
2021/06/17 05:58:40;;;;;;;2.05;1.27;;;;;;;22.31;85.97;100719.03;1714627;82;21018;-45
2021/06/17 06:01:08;;;;;;;1.50;1.05;;;;;;;22.43;86.35;100720.97;1713716;83;21069;-44
2021/06/17 06:03:34;;;;;;;1.42;1.12;;;;;;;22.54;86.57;100723.47;1713553;83;21037;-44
2021/06/17 06:06:00;;;;;;;1.00;0.95;;;;;;;22.57;85.62;100720.55;1713912;83;21005;-43
2021/06/17 06:08:29;;;;;;;2.30;1.32;;;;;;;22.61;85.44;100730.42;1714018;83;20977;-43
2021/06/17 06:11:08;;;;;;;1.55;1.45;;;;;;;22.67;85.09;100732.58;1714314;83;21037;-44
2021/06/17 06:13:38;;;;;;;1.32;1.02;;;;;;;22.68;83.24;100735.61;1651899;83;21009;-46
2021/06/17 06:16:06;;;;;;;1.45;1.32;;;;;;;22.70;83.90;100733.28;1715111;82;20990;-46
2021/06/17 06:18:32;;;;;;;1.47;0.95;;;;;;;22.74;82.68;100731.39;1725833;82;21014;-46
2021/06/17 06:20:58;;;;;;;1.00;0.90;;;;;;;22.85;83.35;100718.34;1707743;83;21043;-45
2021/06/17 06:23:25;;;;;;;1.67;1.07;;;;;;;22.93;82.95;100729.92;1731304;82;21010;-45
2021/06/17 06:25:52;;;;;;;1.92;1.20;;;;;;;23.02;82.89;100727.82;1730659;81;21014;-45
2021/06/17 06:28:19;;;;;;;2.52;1.07;;;;;;;23.09;82.16;100736.34;1705380;83;21018;-46
2021/06/17 06:30:48;;;;;;;1.45;1.35;;;;;;;23.11;80.20;100750.73;1730610;82;21054;-44
2021/06/17 06:33:15;;;;;;;1.87;1.22;;;;;;;23.17;82.11;100750.72;1709547;82;21401;-42
2021/06/17 06:35:41;;;;;;;1.02;0.93;;;;;;;23.31;81.56;100756.43;1679149;82;21071;-43
2021/06/17 06:38:08;;;;;;;1.42;1.22;;;;;;;23.39;81.00;100754.88;1705473;83;21034;-43
2021/06/17 06:40:35;;;;;;;1.40;1.30;;;;;;;23.50;80.86;100759.91;1698608;83;21004;-44
2021/06/17 06:43:02;;;;;;;1.75;1.17;;;;;;;23.59;80.75;100760.55;1698658;83;21522;-42
2021/06/17 06:45:30;;;;;;;1.05;0.80;;;;;;;23.69;79.96;100760.56;1699527;83;20895;-45
2021/06/17 06:47:57;;;;;;;2.17;1.35;;;;;;;23.76;79.07;100764.95;1698491;84;21007;-45
2021/06/17 06:50:23;;;;;;;1.30;1.20;;;;;;;23.83;79.84;100765.93;1737386;81;21054;-45
2021/06/17 06:52:50;;;;;;;2.15;1.07;;;;;;;23.89;77.94;100767.88;1702786;84;20895;-44
2021/06/17 06:55:16;;;;;;;2.10;1.00;;;;;;;23.98;77.92;100764.88;1702781;82;20983;-46
2021/06/17 06:57:43;;;;;;;1.45;0.85;;;;;;;24.07;76.59;100768.89;1702948;83;21025;-44
2021/06/17 07:00:12;;;;;;;1.72;0.82;;;;;;;24.10;78.11;100768.95;1702976;82;21010;-47
2021/06/17 07:02:39;;;;;;;2.08;0.85;;;;;;;24.19;76.09;100772.95;1703095;84;20994;-45
2021/06/17 07:05:06;;;;;;;1.27;1.17;;;;;;;24.22;76.63;100770.23;1702917;82;21408;-42
2021/06/17 07:07:32;;;;;;;1.47;1.15;;;;;;;24.32;78.54;100767.45;1702585;84;21018;-43
2021/06/17 07:09:59;;;;;;;4.12;1.32;;;;;;;24.42;77.54;100761.30;1703033;84;21483;-42
2021/06/17 07:12:26;;;;;;;1.87;1.17;;;;;;;24.54;76.33;100772.15;1713685;83;21026;-42
2021/06/17 07:14:53;;;;;;;1.80;1.37;;;;;;;24.61;76.69;100776.49;1713447;83;21605;-44
2021/06/17 07:17:20;;;;;;;1.37;1.15;;;;;;;24.70;77.52;100772.87;1703645;83;21070;-44
2021/06/17 07:19:46;;;;;;;1.62;1.15;;;;;;;24.72;75.86;100759.34;1702944;84;21061;-42
2021/06/17 07:22:12;;;;;;;1.35;1.20;;;;;;;24.77;77.10;100768.83;1702963;84;20991;-44
2021/06/17 07:24:38;;;;;;;1.80;1.35;;;;;;;24.87;74.37;100760.44;1703111;84;21121;-42
2021/06/17 07:27:06;;;;;;;1.95;1.10;;;;;;;24.92;74.95;100764.92;1719930;81;21442;-42
2021/06/17 07:29:32;;;;;;;1.40;1.00;;;;;;;25.02;75.42;100761.52;1755699;81;20981;-43
2021/06/17 07:32:01;;;;;;;3.17;1.57;;;;;;;25.13;74.11;100763.95;1760159;81;21413;-45
2021/06/17 07:34:27;;;;;;;1.27;0.82;;;;;;;25.18;73.37;100770.66;1760653;80;20965;-43
2021/06/17 07:36:53;;;;;;;1.27;1.10;;;;;;;25.17;72.82;100768.22;1728400;80;21038;-42
2021/06/17 07:39:21;;;;;;;1.42;1.25;;;;;;;25.14;72.38;100766.14;1710977;80;21493;-43
2021/06/17 07:41:47;;;;;;;1.55;1.20;;;;;;;25.11;73.02;100766.30;1760867;81;20996;-43
2021/06/17 07:44:13;;;;;;;2.77;1.05;;;;;;;25.12;73.83;100767.91;1760914;80;21040;-43
2021/06/17 07:46:39;;;;;;;2.05;1.27;;;;;;;25.19;72.92;100768.66;1760822;80;20962;-42
2021/06/17 07:49:06;;;;;;;1.20;1.07;;;;;;;25.26;73.60;100768.20;1760912;81;21035;-45
2021/06/17 07:51:32;;;;;;;1.27;1.05;;;;;;;25.33;71.15;100766.13;1760604;80;21949;-43
2021/06/17 07:54:00;;;;;;;1.00;0.90;;;;;;;25.35;72.71;100765.77;1760768;81;21476;-42
2021/06/17 07:56:28;;;;;;;1.90;1.20;;;;;;;25.34;72.07;100773.33;1700675;83;21018;-43
2021/06/17 07:58:54;;;;;;;1.92;1.25;;;;;;;25.35;71.95;100768.56;1734320;82;20992;-44
2021/06/17 08:01:21;;;;;;;1.67;1.20;;;;;;;25.43;72.53;100766.11;1738407;82;21011;-43
2021/06/17 08:03:48;;;;;;;2.30;1.20;;;;;;;25.53;71.19;100771.88;1737266;82;20939;-45
2021/06/17 08:06:14;;;;;;;1.22;1.12;;;;;;;25.59;69.62;100784.15;1737296;82;21063;-44
2021/06/17 08:08:42;;;;;;;1.17;0.82;;;;;;;25.61;69.92;100781.80;1737038;82;21004;-43
2021/06/17 08:11:09;;;;;;;1.90;1.22;;;;;;;25.64;70.24;100776.27;1736742;81;21486;-44
2021/06/17 08:13:35;;;;;;;1.37;1.27;;;;;;;25.63;70.27;100776.64;1705784;82;21076;-45
2021/06/17 08:16:02;;;;;;;1.32;1.20;;;;;;;25.63;70.37;100777.44;1713720;83;20990;-44
2021/06/17 08:18:29;;;;;;;1.35;1.25;;;;;;;25.63;71.54;100771.84;1755396;81;21487;-45
2021/06/17 08:20:57;;;;;;;1.20;1.10;;;;;;;25.69;70.22;100772.32;1721391;83;21002;-45
2021/06/17 08:23:25;;;;;;;1.85;1.40;;;;;;;25.73;69.10;100768.41;1756673;81;20993;-46
2021/06/17 08:25:51;;;;;;;2.33;1.32;;;;;;;25.75;68.79;100778.64;1723557;83;21018;-44
2021/06/17 08:28:18;;;;;;;1.82;1.20;;;;;;;25.73;68.00;100775.41;1774584;80;21027;-44
2021/06/17 08:30:44;;;;;;;1.10;1.00;;;;;;;25.69;68.07;100784.91;1769137;80;20974;-46
2021/06/17 08:33:13;;;;;;;1.80;1.35;;;;;;;25.66;69.19;100779.48;1755339;81;21576;-45
2021/06/17 08:35:39;;;;;;;1.52;1.37;;;;;;;25.68;71.07;100775.72;1755083;81;21064;-44
2021/06/17 08:38:05;;;;;;;1.52;1.30;;;;;;;25.77;69.98;100768.48;1736972;81;21434;-44
2021/06/17 08:40:33;;;;;;;0.85;0.82;;;;;;;25.89;70.66;100771.11;1713911;83;21112;-44
2021/06/17 08:43:00;;;;;;;1.50;1.10;;;;;;;25.97;69.53;100774.81;1714290;83;21043;-44
2021/06/17 08:45:27;;;;;;;1.10;1.00;;;;;;;25.99;68.05;100783.66;1713957;83;20993;-44
2021/06/17 08:47:53;;;;;;;1.95;1.40;;;;;;;25.98;68.58;100778.42;1728358;81;21032;-46
2021/06/17 08:50:23;;;;;;;1.65;1.25;;;;;;;25.98;69.10;100788.22;1770130;80;21002;-44
2021/06/17 08:52:49;;;;;;;1.37;1.07;;;;;;;25.96;68.24;100784.38;1783891;80;20993;-46
2021/06/17 08:55:21;;;;;;;4.10;1.70;;;;;;;25.99;70.63;100797.66;1786355;80;20994;-44
2021/06/17 08:57:50;;;;;;;3.42;1.60;;;;;;;26.09;68.83;100785.80;1786150;80;20989;-44
2021/06/17 09:00:39;;;;;;;1.72;1.62;;;;;;;26.18;69.59;100785.52;1775903;80;21391;-46
2021/06/17 09:03:08;;;;;;;3.10;1.95;;;;;;;26.31;70.65;100791.12;1775687;80;21033;-45
2021/06/17 09:05:38;;;;;;;2.40;1.77;;;;;;;26.44;70.64;100779.09;1759646;80;21043;-44
2021/06/17 09:08:07;;;;;;;1.00;0.90;;;;;;;26.58;69.86;100780.72;1748672;82;21017;-46
2021/06/17 09:10:34;;;;;;;1.85;1.32;;;;;;;26.66;68.51;100771.80;1750153;82;20985;-45
2021/06/17 09:13:03;;;;;;;1.85;1.75;;;;;;;26.67;67.33;100768.39;1753015;81;21000;-44
2021/06/17 09:15:44;;;;;;;1.50;1.40;;;;;;;26.66;67.81;100768.20;1754921;81;21426;-45
2021/06/17 09:18:34;;;;;;;1.57;1.40;;;;;;;26.66;66.88;100769.59;1755133;81;20989;-45
2021/06/17 09:21:09;;;;;;;1.32;1.22;;;;;;;26.72;68.24;100762.45;1754842;81;20898;-44
2021/06/17 09:23:42;;;;;;;2.60;1.32;;;;;;;26.77;65.66;100756.50;1714092;83;21617;-44
2021/06/17 09:26:22;;;;;;;1.52;1.42;;;;;;;26.74;63.91;100758.67;1713995;83;21021;-44
2021/06/17 09:29:09;;;;;;;1.92;1.57;;;;;;;26.70;65.95;100762.82;1717685;83;20986;-47
2021/06/17 09:31:41;;;;;;;2.30;1.75;;;;;;;26.64;68.06;100750.95;1708742;82;21094;-44
2021/06/17 09:34:14;;;;;;;2.30;1.82;;;;;;;26.62;64.82;100753.32;1722674;83;20999;-44
2021/06/17 09:36:40;;;;;;;2.33;1.95;;;;;;;26.60;67.46;100757.30;1723075;81;21038;-44
2021/06/17 09:39:15;;;;;;;2.17;1.92;;;;;;;26.67;68.42;100745.98;1722827;81;21085;-47
2021/06/17 09:41:46;;;;;;;2.10;1.52;;;;;;;26.70;65.84;100746.61;1723389;81;21026;-46
2021/06/17 09:44:39;;;;;;;5.30;3.17;;;;;;;26.69;66.95;100745.00;1723431;83;20950;-44
2021/06/17 09:47:11;;;;;;;3.92;1.87;;;;;;;26.71;64.59;100745.43;1723466;83;21011;-46
2021/06/17 09:49:39;;;;;;;3.00;2.12;;;;;;;26.76;67.08;100745.09;1723760;81;21153;-47
2021/06/17 09:52:07;;;;;;;3.83;1.90;;;;;;;26.77;65.32;100745.29;1723595;82;21024;-44
2021/06/17 09:54:33;;;;;;;3.20;2.33;;;;;;;26.77;63.45;100753.70;1714501;83;21441;-44
2021/06/17 09:57:11;;;;;;;2.33;1.85;;;;;;;26.76;65.55;100745.89;1673361;83;21009;-45
2021/06/17 09:59:49;;;;;;;1.92;1.67;;;;;;;26.77;66.19;100747.49;1722738;83;21495;-44
2021/06/17 10:02:29;;;;;;;2.12;1.87;;;;;;;26.78;65.78;100748.29;1722118;83;21423;-45
2021/06/17 10:05:19;;;;;;;2.17;1.80;;;;;;;26.81;66.83;100746.95;1722690;83;21360;-46
2021/06/17 10:07:46;;;;;;;4.70;2.00;;;;;;;26.80;63.73;100748.72;1723183;83;21024;-45
2021/06/17 10:10:16;;;;;;;3.45;2.62;;;;;;;26.73;65.64;100748.64;1722814;83;21060;-44
2021/06/17 10:12:42;;;;;;;4.12;1.87;;;;;;;26.77;64.93;100745.29;1722889;83;21056;-47
2021/06/17 10:15:09;;;;;;;7.10;3.50;;;;;;;26.89;66.33;100742.22;1722908;83;21029;-45
2021/06/17 10:17:36;;;;;;;2.80;1.80;;;;;;;26.95;65.55;100740.70;1723382;83;21011;-45
2021/06/17 10:20:05;;;;;;;3.10;1.55;;;;;;;27.01;64.16;100743.96;1692357;84;21463;-45
2021/06/17 10:22:37;;;;;;;2.00;1.77;;;;;;;27.10;64.63;100739.42;1723443;83;21012;-44
2021/06/17 10:25:06;;;;;;;3.12;2.17;;;;;;;27.11;62.21;100739.66;1722775;83;20987;-44
2021/06/17 10:27:41;;;;;;;5.65;3.50;;;;;;;27.11;63.36;100739.66;1725233;81;21054;-45
2021/06/17 10:30:08;;;;;;;2.08;1.80;;;;;;;27.20;64.16;100743.78;1736414;81;21367;-45
2021/06/17 10:32:40;;;;;;;2.55;1.85;;;;;;;27.35;63.69;100748.11;1712687;83;21006;-45
2021/06/17 10:35:07;;;;;;;2.17;1.92;;;;;;;27.44;62.99;100747.19;1736941;81;21040;-45
2021/06/17 10:37:50;;;;;;;2.72;1.98;;;;;;;27.43;64.00;100746.39;1734094;82;21068;-44
2021/06/17 10:40:19;;;;;;;2.30;1.90;;;;;;;27.42;63.44;100736.38;1715376;82;20998;-45
2021/06/17 10:42:46;;;;;;;2.37;2.02;;;;;;;27.45;62.39;100741.20;1731596;82;21043;-44
2021/06/17 10:45:15;;;;;;;2.60;2.37;;;;;;;27.44;60.90;100755.01;1731338;81;21073;-44
2021/06/17 10:47:49;;;;;;;2.33;1.87;;;;;;;27.44;63.13;100743.78;1731386;82;21025;-44
2021/06/17 10:50:29;;;;;;;2.65;2.10;;;;;;;27.49;62.24;100740.42;1712623;82;21870;-45
2021/06/17 10:53:26;;;;;;;2.65;2.00;;;;;;;27.54;62.37;100741.47;1731551;82;20997;-46
2021/06/17 10:56:07;;;;;;;2.52;2.05;;;;;;;27.61;63.25;100742.33;1731208;81;21005;-45
2021/06/17 10:58:50;;;;;;;2.20;2.00;;;;;;;27.62;61.70;100734.70;1731541;82;20997;-45
2021/06/17 11:01:41;;;;;;;3.22;2.10;;;;;;;27.62;63.66;100747.33;1731289;81;20985;-44
2021/06/17 11:04:23;;;;;;;2.08;1.75;;;;;;;27.66;62.18;100735.55;1731522;82;21028;-45
2021/06/17 11:07:05;;;;;;;2.62;2.10;;;;;;;27.70;62.68;100730.78;1731278;82;20993;-45
2021/06/17 11:09:57;;;;;;;2.58;2.08;;;;;;;27.79;64.55;100735.44;1732076;81;21024;-44
2021/06/17 11:12:27;;;;;;;2.15;1.95;;;;;;;27.94;63.85;100734.16;1731428;82;21027;-45
2021/06/17 11:14:56;;;;;;;2.60;1.77;;;;;;;28.10;63.56;100737.48;1731961;81;21052;-44
2021/06/17 11:17:33;;;;;;;3.08;1.98;;;;;;;28.26;63.44;100742.20;1731749;82;20998;-45
2021/06/17 11:20:13;;;;;;;2.12;1.90;;;;;;;28.41;61.99;100731.00;1731763;81;21846;-44
2021/06/17 11:22:54;;;;;;;1.82;1.72;;;;;;;28.45;60.61;100734.67;1731564;82;20954;-45
2021/06/17 11:25:21;;;;;;;2.77;2.30;;;;;;;28.36;60.05;100732.79;1731680;81;21439;-45
2021/06/17 11:28:12;;;;;;;1.92;1.45;;;;;;;28.11;56.33;100744.70;1730832;82;21442;-45
2021/06/17 11:30:53;;;;;;;1.52;1.42;;;;;;;27.86;57.36;100736.92;1724013;81;21000;-46
2021/06/17 11:33:24;;;;;;;3.22;2.08;;;;;;;27.76;58.15;100743.23;1755077;81;20987;-45
2021/06/17 11:36:05;;;;;;;3.25;1.85;;;;;;;27.77;60.61;100735.05;1754910;81;21572;-44
2021/06/17 11:38:33;;;;;;;2.60;2.35;;;;;;;27.97;60.71;100739.02;1754956;81;21512;-47